createdAt,value
2018-12-22T00:06:36.229Z,69.33
2018-12-22T00:10:03.144Z,70.74
2018-12-22T00:13:30.644Z,70.24
2018-12-22T00:16:57.627Z,69.58
2018-12-22T00:20:25.387Z,70.47
2018-12-22T00:23:54.314Z,69.38
2018-12-22T00:27:22.448Z,69.62
2018-12-22T00:30:50.632Z,70.15
2018-12-22T00:34:15.413Z,70.25
2018-12-22T00:37:40.057Z,71.03
2018-12-22T00:41:04.780Z,71.35
2018-12-22T00:44:29.442Z,72.28
2018-12-22T00:47:54.083Z,71.47
2018-12-22T00:51:18.822Z,70.74
2018-12-22T00:54:43.605Z,71.87
2018-12-22T00:58:08.290Z,71.84
2018-12-22T01:01:32.918Z,70.33
2018-12-22T01:04:57.587Z,70.76
2018-12-22T01:08:22.193Z,73.71
2018-12-22T01:11:46.863Z,74.73
2018-12-22T01:15:11.568Z,74.67
2018-12-22T01:18:36.267Z,76.33
2018-12-22T01:22:00.955Z,77.15
2018-12-22T01:25:25.605Z,76.80
2018-12-22T01:28:50.280Z,77.14
2018-12-22T01:32:15.128Z,77.76
2018-12-22T01:35:39.881Z,76.41
2018-12-22T01:39:05.483Z,77.13
2018-12-22T01:42:30.448Z,76.28
2018-12-22T01:45:55.115Z,76.28
2018-12-22T01:49:19.838Z,78.15
2018-12-22T01:52:44.548Z,78.00
2018-12-22T01:56:09.343Z,79.79
2018-12-22T01:59:34.046Z,78.54
2018-12-22T02:02:58.703Z,79.42
2018-12-22T02:06:23.466Z,78.33
2018-12-22T02:09:48.189Z,79.83
2018-12-22T02:13:12.949Z,79.27
2018-12-22T02:16:37.672Z,79.88
2018-12-22T02:20:02.377Z,79.22
2018-12-22T02:23:27.110Z,80.70
2018-12-22T02:26:51.779Z,82.80
2018-12-22T02:30:16.386Z,82.93
2018-12-22T02:33:41.053Z,82.60
2018-12-22T02:37:05.709Z,83.71
2018-12-22T02:40:33.209Z,84.38
2018-12-22T02:43:57.866Z,83.93
2018-12-22T02:47:22.584Z,83.20
2018-12-22T02:50:47.305Z,83.01
2018-12-22T02:54:11.957Z,82.40
2018-12-22T02:57:36.601Z,82.35
2018-12-22T03:01:01.213Z,81.95
2018-12-22T03:04:25.902Z,83.08
2018-12-22T03:07:50.541Z,82.01
2018-12-22T03:11:15.309Z,81.60
2018-12-22T03:14:40.071Z,80.31
2018-12-22T03:18:04.776Z,80.83
2018-12-22T03:21:29.477Z,81.11
2018-12-22T03:24:54.245Z,81.18
2018-12-22T03:28:18.920Z,82.87
2018-12-22T03:31:43.599Z,82.28
2018-12-22T03:35:08.417Z,83.81
2018-12-22T03:38:33.261Z,85.10
2018-12-22T03:41:58.052Z,85.41
2018-12-22T03:45:22.794Z,85.00
2018-12-22T03:48:54.203Z,86.18
2018-12-22T03:52:18.926Z,87.28
2018-12-22T03:55:43.585Z,86.31
2018-12-22T03:59:08.375Z,86.73
2018-12-22T04:02:33.026Z,85.74
2018-12-22T04:05:57.782Z,85.44
2018-12-22T04:09:22.544Z,84.93
2018-12-22T04:12:47.452Z,85.58
2018-12-22T04:16:12.155Z,85.51
2018-12-22T04:19:36.851Z,84.56
2018-12-22T04:23:01.511Z,84.86
2018-12-22T04:26:26.405Z,84.87
2018-12-22T04:29:51.215Z,84.69
2018-12-22T04:33:15.935Z,85.30
2018-12-22T04:36:40.649Z,85.09
2018-12-22T04:40:05.754Z,85.56
2018-12-22T04:43:30.510Z,85.91
2018-12-22T04:46:55.291Z,85.02
2018-12-22T04:50:19.974Z,86.52
2018-12-22T04:53:44.634Z,87.33
2018-12-22T04:57:09.264Z,87.09
2018-12-22T05:00:34.144Z,85.86
2018-12-22T05:03:58.762Z,87.08
2018-12-22T05:07:23.436Z,86.63
2018-12-22T05:10:48.055Z,86.84
2018-12-22T05:14:12.744Z,87.41
2018-12-22T05:17:37.472Z,86.91
2018-12-22T05:21:02.265Z,86.90
2018-12-22T05:24:26.919Z,87.00
2018-12-22T05:27:51.578Z,86.88
2018-12-22T05:31:16.267Z,86.20
2018-12-22T05:34:40.947Z,85.93
2018-12-22T05:38:05.601Z,85.71
2018-12-22T05:41:30.210Z,86.04
2018-12-22T05:44:54.870Z,86.15
2018-12-22T05:48:19.519Z,85.99
2018-12-22T05:51:44.197Z,85.51
2018-12-22T05:55:08.892Z,85.69
2018-12-22T05:58:33.548Z,86.19
2018-12-22T06:01:58.206Z,85.90
2018-12-22T06:05:22.896Z,85.77
2018-12-22T06:08:47.581Z,84.63
2018-12-22T06:12:12.224Z,85.09
2018-12-22T06:15:36.875Z,85.20
2018-12-22T06:19:01.500Z,84.71
2018-12-22T06:22:26.198Z,84.47
2018-12-22T06:25:50.853Z,84.57
2018-12-22T06:29:15.511Z,84.71
2018-12-22T06:32:40.154Z,84.21
2018-12-22T06:36:04.965Z,84.25
2018-12-22T06:39:29.687Z,84.50
2018-12-22T06:42:54.375Z,83.47
2018-12-22T06:46:19.246Z,83.48
2018-12-22T06:49:43.955Z,82.78
2018-12-22T06:53:08.834Z,83.56
2018-12-22T06:56:33.521Z,82.21
2018-12-22T06:59:58.161Z,82.37
2018-12-22T07:03:22.778Z,82.15
2018-12-22T07:06:47.473Z,82.18
2018-12-22T07:10:12.299Z,81.10
2018-12-22T07:13:36.907Z,80.60
2018-12-22T07:17:01.620Z,78.44
2018-12-22T07:20:26.437Z,77.95
2018-12-22T07:23:51.109Z,77.08
2018-12-22T07:27:15.772Z,76.46
2018-12-22T07:30:47.066Z,76.39
2018-12-22T07:34:11.786Z,76.04
2018-12-22T07:37:36.485Z,76.93
2018-12-22T07:41:01.155Z,76.80
2018-12-22T07:44:25.826Z,75.64
2018-12-22T07:47:50.499Z,75.90
2018-12-22T07:51:15.232Z,75.53
2018-12-22T07:54:40.063Z,75.35
2018-12-22T07:58:04.933Z,76.42
2018-12-22T08:01:29.732Z,76.47
2018-12-22T08:04:54.473Z,76.75
2018-12-22T08:08:19.201Z,75.23
2018-12-22T08:11:43.935Z,75.73
2018-12-22T08:15:08.915Z,75.24
2018-12-22T08:18:33.536Z,75.21
2018-12-22T08:21:58.187Z,74.78
2018-12-22T08:25:22.974Z,73.83
2018-12-22T08:28:47.681Z,74.36
2018-12-22T08:32:12.545Z,73.94
2018-12-22T08:35:37.394Z,74.07
2018-12-22T08:39:02.135Z,74.61
2018-12-22T08:42:26.841Z,74.34
2018-12-22T08:45:51.578Z,73.50
2018-12-22T08:49:16.168Z,74.55
2018-12-22T08:52:40.778Z,74.46
2018-12-22T08:56:05.606Z,74.28
2018-12-22T08:59:30.220Z,74.10
2018-12-22T09:02:54.979Z,73.82
2018-12-22T09:06:19.620Z,73.30
2018-12-22T09:09:44.280Z,73.17
2018-12-22T09:13:08.918Z,72.85
2018-12-22T09:16:33.634Z,73.02
2018-12-22T09:19:58.328Z,72.34
2018-12-22T09:23:22.953Z,72.10
2018-12-22T09:26:47.616Z,72.96
2018-12-22T09:30:13.954Z,73.44
2018-12-22T09:33:38.696Z,73.22
2018-12-22T09:37:03.447Z,73.01
2018-12-22T09:40:28.213Z,72.10
2018-12-22T09:43:52.980Z,72.96
2018-12-22T09:47:17.592Z,71.88
2018-12-22T09:50:42.250Z,71.79
2018-12-22T09:54:07.038Z,70.72
2018-12-22T09:57:31.823Z,71.22
2018-12-22T10:01:00.320Z,71.71
2018-12-22T10:04:25.251Z,71.22
2018-12-22T10:07:49.914Z,71.62
2018-12-22T10:11:14.560Z,72.05
2018-12-22T10:14:39.338Z,70.88
2018-12-22T10:18:04.056Z,70.37
2018-12-22T10:21:28.725Z,70.80
2018-12-22T10:24:53.407Z,71.83
2018-12-22T10:28:18.442Z,72.12
2018-12-22T10:31:43.136Z,71.53
2018-12-22T10:35:13.243Z,71.60
2018-12-22T10:38:37.955Z,71.71
2018-12-22T10:42:02.687Z,70.00
2018-12-22T10:45:27.386Z,70.11
2018-12-22T10:48:52.063Z,71.10
2018-12-22T10:52:16.733Z,70.08
2018-12-22T10:55:41.499Z,70.26
2018-12-22T10:59:06.233Z,68.97
2018-12-22T11:02:30.911Z,70.62
2018-12-22T11:05:55.685Z,70.28
2018-12-22T11:09:21.159Z,70.49
2018-12-22T11:12:45.835Z,69.84
2018-12-22T11:16:10.686Z,70.72
2018-12-22T11:19:35.438Z,69.42
2018-12-22T11:23:00.151Z,68.62
2018-12-22T11:26:24.820Z,68.82
2018-12-22T11:29:49.475Z,68.95
2018-12-22T11:33:14.562Z,68.75
2018-12-22T11:36:39.519Z,66.77
2018-12-22T11:40:06.429Z,67.34
2018-12-22T11:43:31.381Z,66.29
2018-12-22T11:47:01.101Z,66.89
2018-12-22T11:50:27.688Z,68.01
2018-12-22T11:53:52.379Z,68.86
2018-12-22T11:57:17.077Z,67.97
2018-12-22T12:00:41.935Z,69.86
2018-12-22T12:04:06.741Z,69.23
2018-12-22T12:07:31.415Z,69.33
2018-12-22T12:10:56.228Z,68.90
2018-12-22T12:14:20.926Z,68.33
2018-12-22T12:19:04.935Z,67.94
2018-12-22T12:22:29.736Z,68.81
2018-12-22T12:25:54.381Z,68.82
2018-12-22T12:29:25.642Z,68.34
2018-12-22T12:32:50.263Z,70.20
2018-12-22T12:36:15.063Z,71.82
2018-12-22T12:39:39.678Z,71.00
2018-12-22T12:43:07.296Z,71.06
2018-12-22T12:46:46.040Z,70.01
2018-12-22T12:50:14.207Z,69.50
2018-12-22T12:53:39.133Z,68.94
2018-12-22T12:57:04.122Z,70.00
2018-12-22T13:00:28.937Z,72.23
2018-12-22T13:03:53.933Z,72.56
2018-12-22T13:07:18.871Z,73.26
2018-12-22T13:10:43.746Z,75.46
2018-12-22T13:14:16.512Z,77.48
2018-12-22T13:17:41.422Z,79.59
2018-12-22T13:21:08.974Z,79.44
2018-12-22T13:24:33.723Z,80.47
2018-12-22T13:27:58.566Z,81.19
2018-12-22T13:31:27.181Z,81.82
2018-12-22T13:34:52.702Z,81.91
2018-12-22T13:38:18.411Z,82.11
2018-12-22T13:41:43.282Z,82.13
2018-12-22T13:45:28.187Z,80.15
2018-12-22T13:48:53.497Z,81.57
2018-12-22T13:52:18.250Z,83.33
2018-12-22T13:55:42.936Z,83.31
2018-12-22T13:59:07.736Z,83.09
2018-12-22T14:02:37.245Z,82.85
2018-12-22T14:06:01.939Z,82.79
2018-12-22T14:09:26.613Z,82.36
2018-12-22T14:12:51.421Z,82.52
2018-12-22T14:16:30.156Z,80.89
2018-12-22T14:20:03.451Z,81.30
2018-12-22T14:23:39.867Z,81.64
2018-12-22T14:27:05.025Z,81.32
2018-12-22T14:30:29.865Z,81.24
2018-12-22T14:34:00.672Z,82.19
2018-12-22T14:37:25.322Z,81.97
2018-12-22T14:40:50.019Z,80.65
2018-12-22T14:44:14.727Z,80.85
2018-12-22T14:47:39.447Z,81.14
2018-12-22T14:51:04.179Z,81.48
2018-12-22T14:54:28.955Z,80.92
2018-12-22T14:58:00.094Z,80.70
2018-12-22T15:01:24.965Z,81.47
2018-12-22T15:04:49.573Z,81.40
2018-12-22T15:08:14.242Z,80.66
2018-12-22T15:11:38.859Z,81.58
2018-12-22T15:15:03.475Z,80.30
2018-12-22T15:18:28.113Z,79.93
2018-12-22T15:23:21.507Z,80.16
2018-12-22T15:26:46.193Z,80.74
2018-12-22T15:30:14.300Z,81.09
2018-12-22T15:33:39.160Z,80.44
2018-12-22T15:37:03.909Z,80.64
2018-12-22T15:40:28.664Z,80.82
2018-12-22T15:43:53.362Z,80.92
2018-12-22T15:47:18.051Z,79.71
2018-12-22T15:50:44.112Z,78.75
2018-12-22T15:54:09.031Z,78.43
2018-12-22T15:57:33.686Z,78.00
2018-12-22T16:00:58.364Z,77.63
2018-12-22T16:04:23.167Z,75.62
2018-12-22T16:07:47.915Z,76.05
2018-12-22T16:11:12.566Z,73.86
2018-12-22T16:14:37.256Z,73.83
2018-12-22T16:18:01.934Z,73.84
2018-12-22T16:21:26.640Z,75.34
2018-12-22T16:24:51.294Z,74.58
2018-12-22T16:28:23.443Z,74.57
2018-12-22T16:31:48.137Z,75.16
2018-12-22T16:35:12.894Z,74.38
2018-12-22T16:38:37.582Z,75.46
2018-12-22T16:42:02.257Z,75.40
2018-12-22T16:45:26.920Z,76.03
2018-12-22T16:48:51.572Z,74.57
2018-12-22T16:52:16.218Z,76.04
2018-12-22T16:55:40.856Z,75.78
2018-12-22T16:59:05.903Z,75.76
2018-12-22T17:02:56.331Z,76.21
2018-12-22T17:06:21.217Z,76.89
2018-12-22T17:09:45.908Z,76.11
2018-12-22T17:13:11.931Z,76.87
2018-12-22T17:16:36.810Z,75.90
2018-12-22T17:20:01.508Z,76.37
2018-12-22T17:23:42.379Z,77.57
2018-12-22T17:27:07.064Z,76.47
2018-12-22T17:30:31.710Z,76.82
2018-12-22T17:33:56.369Z,77.77
2018-12-22T17:37:21.116Z,77.72
2018-12-22T17:40:45.852Z,78.16
2018-12-22T17:44:10.506Z,77.84
2018-12-22T17:47:35.232Z,77.73
2018-12-22T17:50:59.917Z,77.27
2018-12-22T17:54:24.577Z,76.68
2018-12-22T17:57:49.232Z,75.82
2018-12-22T18:01:13.901Z,75.87
2018-12-22T18:04:38.555Z,76.50
2018-12-22T18:08:03.190Z,76.78
2018-12-22T18:11:28.026Z,77.32
2018-12-22T18:14:52.674Z,76.02
2018-12-22T18:18:17.387Z,75.74
2018-12-22T18:21:42.089Z,75.71
2018-12-22T18:25:10.169Z,76.50
2018-12-22T18:28:37.692Z,75.96
2018-12-22T18:32:02.338Z,75.62
2018-12-22T18:35:26.951Z,75.58
2018-12-22T18:38:51.638Z,75.26
2018-12-22T18:42:16.889Z,75.00
2018-12-22T18:45:41.483Z,74.96
2018-12-22T18:49:06.101Z,75.04
2018-12-22T18:52:30.708Z,75.50
2018-12-22T18:55:55.359Z,75.26
2018-12-22T18:59:21.941Z,75.18
2018-12-22T19:02:46.623Z,75.86
2018-12-22T19:06:11.274Z,77.05
2018-12-22T19:09:38.742Z,76.17
2018-12-22T19:13:03.399Z,78.41
2018-12-22T19:16:28.051Z,78.77
2018-12-22T19:19:53.395Z,81.27
2018-12-22T19:23:20.268Z,80.72
2018-12-22T19:26:44.955Z,80.44
2018-12-22T19:30:09.759Z,80.18
2018-12-22T19:33:34.471Z,80.54
2018-12-22T19:36:59.083Z,80.66
2018-12-22T19:40:23.727Z,81.66
2018-12-22T19:43:48.391Z,81.50
2018-12-22T19:47:13.110Z,80.97
2018-12-22T19:50:37.752Z,81.78
2018-12-22T19:54:02.423Z,82.01
2018-12-22T19:57:27.090Z,82.61
2018-12-22T20:00:51.732Z,82.51
2018-12-22T20:04:16.083Z,84.39
2018-12-22T20:07:40.781Z,83.56
2018-12-22T20:11:05.444Z,83.69
2018-12-22T20:14:30.079Z,84.35
2018-12-22T20:17:54.798Z,83.40
2018-12-22T20:21:19.464Z,84.25
2018-12-22T20:24:44.178Z,83.45
2018-12-22T20:28:08.891Z,82.92
2018-12-22T20:31:33.516Z,82.46
2018-12-22T20:34:58.173Z,83.23
2018-12-22T20:38:22.832Z,82.92
2018-12-22T20:41:47.442Z,82.97
2018-12-22T20:45:12.071Z,83.65
2018-12-22T20:48:36.772Z,83.05
2018-12-22T20:52:01.450Z,84.28
2018-12-22T20:55:26.090Z,82.75
2018-12-22T20:58:50.777Z,83.15
2018-12-22T21:02:15.411Z,82.46
2018-12-22T21:05:47.693Z,82.72
2018-12-22T21:09:12.451Z,82.74
2018-12-22T21:12:37.044Z,83.22
2018-12-22T21:16:01.717Z,82.55
2018-12-22T21:19:26.516Z,82.36
2018-12-22T21:22:51.263Z,82.54
2018-12-22T21:26:15.970Z,82.54
2018-12-22T21:29:40.648Z,82.37
2018-12-22T21:33:05.300Z,82.52
2018-12-22T21:36:30.072Z,82.11
2018-12-22T21:39:54.780Z,82.95
2018-12-22T21:43:19.449Z,82.18
2018-12-22T21:46:44.069Z,82.86
2018-12-22T21:50:08.731Z,83.17
2018-12-22T21:53:33.355Z,82.56
2018-12-22T21:56:58.286Z,81.68
2018-12-22T22:00:23.134Z,82.59
2018-12-22T22:03:48.175Z,82.92
2018-12-22T22:07:13.028Z,83.08
2018-12-22T22:10:38.244Z,82.82
2018-12-22T22:14:03.043Z,82.07
2018-12-22T22:17:27.880Z,81.94
2018-12-22T22:20:52.724Z,82.24
2018-12-22T22:24:17.787Z,83.09
2018-12-22T22:27:43.057Z,82.44
2018-12-22T22:31:07.852Z,82.12
2018-12-22T22:34:35.530Z,82.57
2018-12-22T22:38:00.285Z,81.83
2018-12-22T22:41:25.098Z,80.52
2018-12-22T22:44:49.879Z,80.89
2018-12-22T22:48:15.630Z,80.51
2018-12-22T22:51:40.431Z,79.97
2018-12-22T22:55:05.441Z,79.87
2018-12-22T22:58:30.059Z,79.06
2018-12-22T23:01:54.734Z,78.02
2018-12-22T23:05:19.376Z,78.49
2018-12-22T23:08:44.037Z,78.30
2018-12-22T23:12:08.687Z,77.51
2018-12-22T23:15:33.345Z,77.78
2018-12-22T23:18:57.987Z,79.30
2018-12-22T23:22:22.674Z,78.86
2018-12-22T23:25:47.383Z,78.71
2018-12-22T23:29:12.079Z,78.29
2018-12-22T23:32:36.738Z,78.77
2018-12-22T23:36:01.329Z,78.30
2018-12-22T23:39:25.959Z,78.93
2018-12-22T23:42:50.636Z,79.54
2018-12-22T23:46:15.304Z,78.34
2018-12-22T23:49:42.639Z,79.27
2018-12-22T23:53:12.027Z,79.06
2018-12-22T23:56:39.584Z,79.14
